sensor_id;sensor_type;location;lat;lon;timestamp;pressure;altitude;pressure_sealevel;temperature;humidity
34031;BME280;20319;28.466;-16.274;2023-10-08T00:00:47;95447.66;;;25.56;43.20
34031;BME280;20319;28.466;-16.274;2023-10-08T00:03:19;95189.28;;;23.88;43.36
34031;BME280;20319;28.466;-16.274;2023-10-08T00:05:48;95464.13;;;25.56;43.44
34031;BME280;20319;28.466;-16.274;2023-10-08T00:08:17;95510.72;;;25.71;43.59
34031;BME280;20319;28.466;-16.274;2023-10-08T00:10:43;95202.72;;;23.93;43.29
34031;BME280;20319;28.466;-16.274;2023-10-08T00:13:13;95495.34;;;25.67;43.57
34031;BME280;20319;28.466;-16.274;2023-10-08T00:15:42;95478.78;;;25.63;43.18
34031;BME280;20319;28.466;-16.274;2023-10-08T00:18:28;95370.94;;;24.82;43.46
34031;BME280;20319;28.466;-16.274;2023-10-08T00:20:53;95476.50;;;25.65;43.68
34031;BME280;20319;28.466;-16.274;2023-10-08T00:23:22;95476.13;;;25.67;43.63
34031;BME280;20319;28.466;-16.274;2023-10-08T00:25:52;95483.19;;;25.68;43.55
34031;BME280;20319;28.466;-16.274;2023-10-08T00:28:17;95454.22;;;25.51;43.39
34031;BME280;20319;28.466;-16.274;2023-10-08T00:30:43;95448.63;;;25.48;43.76
34031;BME280;20319;28.466;-16.274;2023-10-08T00:33:10;95376.25;;;25.06;43.37
34031;BME280;20319;28.466;-16.274;2023-10-08T00:35:38;95473.75;;;25.65;43.30
34031;BME280;20319;28.466;-16.274;2023-10-08T00:38:04;95304.09;;;24.55;43.33
34031;BME280;20319;28.466;-16.274;2023-10-08T00:40:38;95326.13;;;24.74;43.83
34031;BME280;20319;28.466;-16.274;2023-10-08T00:43:05;95315.25;;;24.62;43.26
34031;BME280;20319;28.466;-16.274;2023-10-08T00:45:38;95472.94;;;25.65;43.51
34031;BME280;20319;28.466;-16.274;2023-10-08T00:48:11;95414.72;;;25.25;43.10
34031;BME280;20319;28.466;-16.274;2023-10-08T00:50:47;95481.06;;;25.61;43.22
34031;BME280;20319;28.466;-16.274;2023-10-08T00:53:13;95446.16;;;25.43;43.21
34031;BME280;20319;28.466;-16.274;2023-10-08T00:55:49;95451.78;;;25.50;43.33
34031;BME280;20319;28.466;-16.274;2023-10-08T00:58:30;95457.00;;;25.55;43.02
34031;BME280;20319;28.466;-16.274;2023-10-08T01:00:59;95425.50;;;25.33;42.93
34031;BME280;20319;28.466;-16.274;2023-10-08T01:03:28;95412.88;;;25.29;43.05
34031;BME280;20319;28.466;-16.274;2023-10-08T01:05:54;95480.56;;;25.56;42.89
34031;BME280;20319;28.466;-16.274;2023-10-08T01:08:22;95277.31;;;24.48;42.75
34031;BME280;20319;28.466;-16.274;2023-10-08T01:11:21;95448.38;;;25.53;42.71
34031;BME280;20319;28.466;-16.274;2023-10-08T01:14:11;95308.16;;;24.61;43.20
34031;BME280;20319;28.466;-16.274;2023-10-08T01:16:37;95425.38;;;25.42;42.85
34031;BME280;20319;28.466;-16.274;2023-10-08T01:19:04;95441.28;;;25.52;43.31
34031;BME280;20319;28.466;-16.274;2023-10-08T01:21:30;95441.28;;;25.52;43.24
34031;BME280;20319;28.466;-16.274;2023-10-08T01:24:03;95441.28;;;25.52;43.37
34031;BME280;20319;28.466;-16.274;2023-10-08T01:26:33;95454.53;;;25.50;42.91
34031;BME280;20319;28.466;-16.274;2023-10-08T01:28:59;95442.34;;;25.47;42.30
34031;BME280;20319;28.466;-16.274;2023-10-08T01:31:29;95304.72;;;24.64;42.65
34031;BME280;20319;28.466;-16.274;2023-10-08T01:33:55;95267.25;;;24.37;42.42
34031;BME280;20319;28.466;-16.274;2023-10-08T01:36:24;95389.53;;;25.19;42.35
34031;BME280;20319;28.466;-16.274;2023-10-08T01:38:51;95402.63;;;25.26;41.08
34031;BME280;20319;28.466;-16.274;2023-10-08T01:41:17;95405.78;;;25.28;42.24
34031;BME280;20319;28.466;-16.274;2023-10-08T01:43:48;95421.28;;;25.36;41.34
34031;BME280;20319;28.466;-16.274;2023-10-08T01:46:17;95260.63;;;24.38;42.06
34031;BME280;20319;28.466;-16.274;2023-10-08T01:48:47;95405.53;;;25.33;42.10
34031;BME280;20319;28.466;-16.274;2023-10-08T01:51:14;95400.22;;;25.24;42.02
34031;BME280;20319;28.466;-16.274;2023-10-08T01:53:52;95283.00;;;24.55;41.94
34031;BME280;20319;28.466;-16.274;2023-10-08T01:56:19;95356.22;;;25.02;41.81
34031;BME280;20319;28.466;-16.274;2023-10-08T01:58:45;95243.41;;;24.22;41.24
34031;BME280;20319;28.466;-16.274;2023-10-08T02:01:11;95384.47;;;25.21;40.47
34031;BME280;20319;28.466;-16.274;2023-10-08T02:03:38;95366.44;;;25.05;39.95
34031;BME280;20319;28.466;-16.274;2023-10-08T02:06:04;95351.16;;;24.88;40.37
34031;BME280;20319;28.466;-16.274;2023-10-08T02:08:31;95391.81;;;25.17;39.85
34031;BME280;20319;28.466;-16.274;2023-10-08T02:10:57;95382.38;;;25.15;39.19
34031;BME280;20319;28.466;-16.274;2023-10-08T02:13:22;95343.72;;;24.89;38.25
34031;BME280;20319;28.466;-16.274;2023-10-08T02:15:51;95365.38;;;25.09;37.81
34031;BME280;20319;28.466;-16.274;2023-10-08T02:18:18;95377.50;;;25.08;38.93
34031;BME280;20319;28.466;-16.274;2023-10-08T02:20:44;95064.59;;;23.12;38.64
34031;BME280;20319;28.466;-16.274;2023-10-08T02:23:10;95164.41;;;23.77;37.76
34031;BME280;20319;28.466;-16.274;2023-10-08T02:25:39;95094.47;;;23.33;37.15
34031;BME280;20319;28.466;-16.274;2023-10-08T02:28:06;95350.72;;;25.02;36.92
34031;BME280;20319;28.466;-16.274;2023-10-08T02:30:34;95361.69;;;25.02;36.80
34031;BME280;20319;28.466;-16.274;2023-10-08T02:33:00;95345.25;;;25.02;36.23
34031;BME280;20319;28.466;-16.274;2023-10-08T02:35:25;95335.63;;;24.92;36.65
34031;BME280;20319;28.466;-16.274;2023-10-08T02:37:52;95344.44;;;25.01;36.39
34031;BME280;20319;28.466;-16.274;2023-10-08T02:40:20;95321.72;;;24.85;36.53
34031;BME280;20319;28.466;-16.274;2023-10-08T02:42:53;95369.91;;;25.02;35.95
34031;BME280;20319;28.466;-16.274;2023-10-08T02:45:27;95345.25;;;25.02;36.34
34031;BME280;20319;28.466;-16.274;2023-10-08T02:47:54;95328.97;;;24.93;36.43
34031;BME280;20319;28.466;-16.274;2023-10-08T02:50:21;95328.88;;;24.90;35.97
34031;BME280;20319;28.466;-16.274;2023-10-08T02:52:50;95177.06;;;23.97;36.16
34031;BME280;20319;28.466;-16.274;2023-10-08T02:55:18;95257.44;;;24.51;36.21
34031;BME280;20319;28.466;-16.274;2023-10-08T02:58:00;95312.69;;;24.85;35.81
34031;BME280;20319;28.466;-16.274;2023-10-08T03:00:28;95278.63;;;24.66;36.27
34031;BME280;20319;28.466;-16.274;2023-10-08T03:03:01;95286.34;;;24.64;36.19
34031;BME280;20319;28.466;-16.274;2023-10-08T03:05:34;95161.69;;;23.93;35.76
34031;BME280;20319;28.466;-16.274;2023-10-08T03:08:02;95283.25;;;24.66;36.16
34031;BME280;20319;28.466;-16.274;2023-10-08T03:10:38;95302.81;;;24.80;36.20
34031;BME280;20319;28.466;-16.274;2023-10-08T03:13:05;95311.66;;;24.89;36.50
34031;BME280;20319;28.466;-16.274;2023-10-08T03:15:33;95165.94;;;23.90;35.83
34031;BME280;20319;28.466;-16.274;2023-10-08T03:18:06;95263.75;;;24.67;35.85
34031;BME280;20319;28.466;-16.274;2023-10-08T03:20:41;95327.50;;;24.96;36.05
34031;BME280;20319;28.466;-16.274;2023-10-08T03:23:15;95308.31;;;24.96;36.46
34031;BME280;20319;28.466;-16.274;2023-10-08T03:26:03;95305.13;;;24.94;35.79
34031;BME280;20319;28.466;-16.274;2023-10-08T03:28:29;95145.63;;;23.91;35.93
34031;BME280;20319;28.466;-16.274;2023-10-08T03:31:00;95241.03;;;24.51;36.28
34031;BME280;20319;28.466;-16.274;2023-10-08T03:33:34;95130.38;;;23.75;36.31
34031;BME280;20319;28.466;-16.274;2023-10-08T03:36:04;95302.66;;;24.89;36.32
34031;BME280;20319;28.466;-16.274;2023-10-08T03:38:46;95300.88;;;24.81;36.53
34031;BME280;20319;28.466;-16.274;2023-10-08T03:41:22;95141.81;;;23.80;36.11
34031;BME280;20319;28.466;-16.274;2023-10-08T03:43:52;95273.00;;;24.63;35.98
34031;BME280;20319;28.466;-16.274;2023-10-08T03:46:21;95224.59;;;24.20;36.35
34031;BME280;20319;28.466;-16.274;2023-10-08T03:48:48;95312.38;;;24.86;36.91
34031;BME280;20319;28.466;-16.274;2023-10-08T03:51:17;95280.41;;;24.62;37.36
34031;BME280;20319;28.466;-16.274;2023-10-08T03:53:47;95161.69;;;23.93;36.53
34031;BME280;20319;28.466;-16.274;2023-10-08T03:56:32;95310.16;;;24.76;36.83
34031;BME280;20319;28.466;-16.274;2023-10-08T03:59:02;95295.50;;;24.68;37.21
34031;BME280;20319;28.466;-16.274;2023-10-08T04:01:46;95012.47;;;22.90;37.11
34031;BME280;20319;28.466;-16.274;2023-10-08T04:04:15;95316.16;;;24.82;37.22
34031;BME280;20319;28.466;-16.274;2023-10-08T04:06:41;95168.56;;;23.87;37.10
34031;BME280;20319;28.466;-16.274;2023-10-08T04:09:14;95290.78;;;24.69;36.76
34031;BME280;20319;28.466;-16.274;2023-10-08T04:11:46;95316.59;;;24.84;37.50
34031;BME280;20319;28.466;-16.274;2023-10-08T04:14:21;95303.16;;;24.78;36.71
34031;BME280;20319;28.466;-16.274;2023-10-08T04:16:48;95306.59;;;24.91;36.65
34031;BME280;20319;28.466;-16.274;2023-10-08T04:19:21;95297.16;;;24.89;36.67
34031;BME280;20319;28.466;-16.274;2023-10-08T04:21:55;95141.50;;;23.97;36.78
34031;BME280;20319;28.466;-16.274;2023-10-08T04:24:26;95273.94;;;24.83;37.11
34031;BME280;20319;28.466;-16.274;2023-10-08T04:27:00;95236.00;;;24.53;37.22
34031;BME280;20319;28.466;-16.274;2023-10-08T04:29:28;95237.78;;;24.61;37.24
34031;BME280;20319;28.466;-16.274;2023-10-08T04:32:00;95259.00;;;24.80;37.46
34031;BME280;20319;28.466;-16.274;2023-10-08T04:34:30;95262.88;;;24.79;37.36
34031;BME280;20319;28.466;-16.274;2023-10-08T04:36:55;95302.13;;;24.99;37.09
34031;BME280;20319;28.466;-16.274;2023-10-08T04:39:27;95255.88;;;24.82;38.52
34031;BME280;20319;28.466;-16.274;2023-10-08T04:42:04;95310.75;;;25.01;38.09
34031;BME280;20319;28.466;-16.274;2023-10-08T04:44:38;95236.59;;;24.62;37.76
34031;BME280;20319;28.466;-16.274;2023-10-08T04:47:07;95293.97;;;25.02;38.02
34031;BME280;20319;28.466;-16.274;2023-10-08T04:49:55;95126.13;;;23.93;37.65
34031;BME280;20319;28.466;-16.274;2023-10-08T04:52:22;95206.69;;;24.38;38.08
34031;BME280;20319;28.466;-16.274;2023-10-08T04:54:50;95285.59;;;24.95;38.30
34031;BME280;20319;28.466;-16.274;2023-10-08T04:57:20;95163.84;;;24.15;37.94
34031;BME280;20319;28.466;-16.274;2023-10-08T04:59:52;95300.97;;;25.00;37.87
34031;BME280;20319;28.466;-16.274;2023-10-08T05:02:19;95326.50;;;25.04;38.25
34031;BME280;20319;28.466;-16.274;2023-10-08T05:04:49;95182.94;;;24.27;38.66
34031;BME280;20319;28.466;-16.274;2023-10-08T05:07:21;95274.44;;;24.88;38.41
34031;BME280;20319;28.466;-16.274;2023-10-08T05:09:52;95214.56;;;24.40;38.37
34031;BME280;20319;28.466;-16.274;2023-10-08T05:12:37;95296.91;;;24.94;38.52
34031;BME280;20319;28.466;-16.274;2023-10-08T05:15:07;95307.75;;;25.06;38.35
34031;BME280;20319;28.466;-16.274;2023-10-08T05:17:46;95304.25;;;25.05;38.65
34031;BME280;20319;28.466;-16.274;2023-10-08T05:20:14;95308.09;;;25.04;38.38
34031;BME280;20319;28.466;-16.274;2023-10-08T05:23:10;95306.09;;;25.01;39.07
34031;BME280;20319;28.466;-16.274;2023-10-08T05:25:56;95314.75;;;25.03;38.59
34031;BME280;20319;28.466;-16.274;2023-10-08T05:28:31;95285.59;;;24.80;39.06
34031;BME280;20319;28.466;-16.274;2023-10-08T05:31:09;95315.81;;;24.99;38.69
34031;BME280;20319;28.466;-16.274;2023-10-08T05:33:42;95279.59;;;24.74;39.18
34031;BME280;20319;28.466;-16.274;2023-10-08T05:36:26;95303.44;;;24.89;39.31
34031;BME280;20319;28.466;-16.274;2023-10-08T05:39:18;95194.50;;;24.20;38.96
34031;BME280;20319;28.466;-16.274;2023-10-08T05:41:50;95182.38;;;24.06;39.12
34031;BME280;20319;28.466;-16.274;2023-10-08T05:44:17;95325.44;;;24.93;39.25
34031;BME280;20319;28.466;-16.274;2023-10-08T05:46:43;95314.81;;;24.91;38.90
34031;BME280;20319;28.466;-16.274;2023-10-08T05:49:22;95276.56;;;24.63;39.30
34031;BME280;20319;28.466;-16.274;2023-10-08T05:51:56;95353.53;;;24.90;39.03
34031;BME280;20319;28.466;-16.274;2023-10-08T05:54:39;95281.47;;;24.58;38.93
34031;BME280;20319;28.466;-16.274;2023-10-08T05:57:23;95134.13;;;23.70;38.99
34031;BME280;20319;28.466;-16.274;2023-10-08T06:00:04;95146.78;;;23.75;39.06
34031;BME280;20319;28.466;-16.274;2023-10-08T06:02:32;95260.91;;;24.48;39.22
34031;BME280;20319;28.466;-16.274;2023-10-08T06:05:03;95304.22;;;24.74;39.61
34031;BME280;20319;28.466;-16.274;2023-10-08T06:07:54;95305.53;;;24.64;40.44
34031;BME280;20319;28.466;-16.274;2023-10-08T06:10:26;95153.72;;;23.72;40.46
34031;BME280;20319;28.466;-16.274;2023-10-08T06:13:02;95191.56;;;23.98;40.04
34031;BME280;20319;28.466;-16.274;2023-10-08T06:15:50;95339.31;;;24.84;40.82
34031;BME280;20319;28.466;-16.274;2023-10-08T06:18:20;95296.78;;;24.59;40.37
34031;BME280;20319;28.466;-16.274;2023-10-08T06:20:55;95310.53;;;24.62;40.04
34031;BME280;20319;28.466;-16.274;2023-10-08T06:23:24;95217.16;;;24.05;40.58
34031;BME280;20319;28.466;-16.274;2023-10-08T06:25:53;95181.25;;;23.79;40.69
34031;BME280;20319;28.466;-16.274;2023-10-08T06:28:43;95348.59;;;24.80;40.50
34031;BME280;20319;28.466;-16.274;2023-10-08T06:31:10;95341.00;;;24.73;40.92
34031;BME280;20319;28.466;-16.274;2023-10-08T06:36:07;95355.09;;;24.75;40.50
34031;BME280;20319;28.466;-16.274;2023-10-08T06:38:37;95278.38;;;24.28;40.61
34031;BME280;20319;28.466;-16.274;2023-10-08T06:41:05;95348.19;;;24.65;40.64
34031;BME280;20319;28.466;-16.274;2023-10-08T06:43:41;95243.03;;;23.96;41.01
34031;BME280;20319;28.466;-16.274;2023-10-08T06:46:12;95355.97;;;24.63;40.72
34031;BME280;20319;28.466;-16.274;2023-10-08T06:48:38;95355.97;;;24.63;41.46
34031;BME280;20319;28.466;-16.274;2023-10-08T06:51:10;95328.22;;;24.49;41.00
34031;BME280;20319;28.466;-16.274;2023-10-08T06:53:42;95349.34;;;24.64;40.93
34031;BME280;20319;28.466;-16.274;2023-10-08T06:56:10;95345.72;;;24.60;41.42
34031;BME280;20319;28.466;-16.274;2023-10-08T06:58:41;95327.31;;;24.45;42.12
34031;BME280;20319;28.466;-16.274;2023-10-08T07:01:14;95358.25;;;24.61;41.27
34031;BME280;20319;28.466;-16.274;2023-10-08T07:03:47;95254.22;;;23.91;42.03
34031;BME280;20319;28.466;-16.274;2023-10-08T07:06:15;95362.75;;;24.54;41.93
34031;BME280;20319;28.466;-16.274;2023-10-08T07:08:57;95371.72;;;24.66;41.83
34031;BME280;20319;28.466;-16.274;2023-10-08T07:11:25;95383.47;;;24.67;41.65
34031;BME280;20319;28.466;-16.274;2023-10-08T07:13:52;95217.06;;;23.74;41.89
34031;BME280;20319;28.466;-16.274;2023-10-08T07:16:18;95359.72;;;24.71;42.42
34031;BME280;20319;28.466;-16.274;2023-10-08T07:18:46;95340.16;;;24.57;42.50
34031;BME280;20319;28.466;-16.274;2023-10-08T07:21:27;95237.41;;;23.89;41.70
34031;BME280;20319;28.466;-16.274;2023-10-08T07:24:11;95356.75;;;24.64;42.23
34031;BME280;20319;28.466;-16.274;2023-10-08T07:26:41;95193.84;;;23.68;42.81
34031;BME280;20319;28.466;-16.274;2023-10-08T07:29:15;95366.25;;;24.82;42.25
34031;BME280;20319;28.466;-16.274;2023-10-08T07:31:46;95338.84;;;24.66;42.11
34031;BME280;20319;28.466;-16.274;2023-10-08T07:34:17;95164.72;;;23.60;41.62
34031;BME280;20319;28.466;-16.274;2023-10-08T07:37:00;95221.28;;;23.99;41.67
34031;BME280;20319;28.466;-16.274;2023-10-08T07:39:26;95353.53;;;24.90;41.62
34031;BME280;20319;28.466;-16.274;2023-10-08T07:41:53;95359.91;;;24.94;42.27
34031;BME280;20319;28.466;-16.274;2023-10-08T07:44:22;95340.38;;;24.80;42.26
34031;BME280;20319;28.466;-16.274;2023-10-08T07:46:50;95206.13;;;24.02;42.22
34031;BME280;20319;28.466;-16.274;2023-10-08T07:49:25;95377.31;;;25.01;41.83
34031;BME280;20319;28.466;-16.274;2023-10-08T07:51:57;95359.47;;;25.07;42.21
34031;BME280;20319;28.466;-16.274;2023-10-08T07:54:25;95337.19;;;24.93;42.30
34031;BME280;20319;28.466;-16.274;2023-10-08T07:56:54;95363.25;;;25.03;42.57
34031;BME280;20319;28.466;-16.274;2023-10-08T07:59:34;95360.88;;;25.17;42.52
34031;BME280;20319;28.466;-16.274;2023-10-08T08:02:05;95353.28;;;24.95;42.92
34031;BME280;20319;28.466;-16.274;2023-10-08T08:04:39;95327.28;;;25.04;42.01
34031;BME280;20319;28.466;-16.274;2023-10-08T08:07:16;95381.03;;;25.24;42.55
34031;BME280;20319;28.466;-16.274;2023-10-08T08:09:51;95184.53;;;24.12;42.15
34031;BME280;20319;28.466;-16.274;2023-10-08T08:12:21;95371.94;;;25.36;43.55
34031;BME280;20319;28.466;-16.274;2023-10-08T08:14:47;95243.00;;;24.51;43.31
34031;BME280;20319;28.466;-16.274;2023-10-08T08:17:14;95378.06;;;25.45;42.65
34031;BME280;20319;28.466;-16.274;2023-10-08T08:19:43;95370.69;;;25.49;43.62
34031;BME280;20319;28.466;-16.274;2023-10-08T08:22:10;95243.69;;;24.63;43.49
34031;BME280;20319;28.466;-16.274;2023-10-08T08:24:54;95384.22;;;25.57;43.40
34031;BME280;20319;28.466;-16.274;2023-10-08T08:27:43;95384.31;;;25.61;42.74
34031;BME280;20319;28.466;-16.274;2023-10-08T08:30:12;95375.38;;;25.64;43.32
34031;BME280;20319;28.466;-16.274;2023-10-08T08:32:41;95363.78;;;25.55;43.50
34031;BME280;20319;28.466;-16.274;2023-10-08T08:35:11;95122.56;;;24.04;43.67
34031;BME280;20319;28.466;-16.274;2023-10-08T08:37:38;95267.47;;;24.91;42.77
34031;BME280;20319;28.466;-16.274;2023-10-08T08:40:04;95229.41;;;24.86;42.43
34031;BME280;20319;28.466;-16.274;2023-10-08T08:42:51;95354.47;;;25.59;43.30
34031;BME280;20319;28.466;-16.274;2023-10-08T08:45:24;95373.94;;;25.70;43.43
34031;BME280;20319;28.466;-16.274;2023-10-08T08:47:50;95428.84;;;25.89;43.43
34031;BME280;20319;28.466;-16.274;2023-10-08T08:50:17;95404.22;;;25.92;43.28
34031;BME280;20319;28.466;-16.274;2023-10-08T08:52:44;95392.53;;;25.95;43.06
34031;BME280;20319;28.466;-16.274;2023-10-08T08:55:11;95384.38;;;25.99;42.57
34031;BME280;20319;28.466;-16.274;2023-10-08T08:57:44;95397.06;;;26.03;42.68
34031;BME280;20319;28.466;-16.274;2023-10-08T09:00:15;95380.25;;;25.89;42.62
34031;BME280;20319;28.466;-16.274;2023-10-08T09:02:46;95396.41;;;26.10;43.24
34031;BME280;20319;28.466;-16.274;2023-10-08T09:05:13;95386.84;;;26.04;43.32
34031;BME280;20319;28.466;-16.274;2023-10-08T09:07:56;95370.59;;;25.95;42.73
34031;BME280;20319;28.466;-16.274;2023-10-08T09:10:26;95370.22;;;25.97;42.72
34031;BME280;20319;28.466;-16.274;2023-10-08T09:12:55;95441.41;;;26.25;43.10
34031;BME280;20319;28.466;-16.274;2023-10-08T09:15:28;95138.41;;;24.61;43.21
34031;BME280;20319;28.466;-16.274;2023-10-08T09:17:57;95291.63;;;25.51;43.29
34031;BME280;20319;28.466;-16.274;2023-10-08T09:20:27;95414.22;;;26.35;42.80
34031;BME280;20319;28.466;-16.274;2023-10-08T09:25:42;95417.41;;;26.37;42.64
34031;BME280;20319;28.466;-16.274;2023-10-08T09:28:09;95407.84;;;26.31;42.90
34031;BME280;20319;28.466;-16.274;2023-10-08T09:30:38;95388.31;;;26.36;43.00
34031;BME280;20319;28.466;-16.274;2023-10-08T09:33:09;95397.00;;;26.38;42.86
34031;BME280;20319;28.466;-16.274;2023-10-08T09:35:36;95287.38;;;25.72;42.90
34031;BME280;20319;28.466;-16.274;2023-10-08T09:38:06;95400.19;;;26.40;42.86
34031;BME280;20319;28.466;-16.274;2023-10-08T09:40:37;95427.28;;;26.61;42.18
34031;BME280;20319;28.466;-16.274;2023-10-08T09:43:03;95422.69;;;26.65;42.73
34031;BME280;20319;28.466;-16.274;2023-10-08T09:45:30;95419.34;;;26.56;42.81
34031;BME280;20319;28.466;-16.274;2023-10-08T09:47:56;95431.06;;;26.72;42.87
34031;BME280;20319;28.466;-16.274;2023-10-08T09:50:31;95403.00;;;26.63;42.33
34031;BME280;20319;28.466;-16.274;2023-10-08T09:53:09;95414.94;;;26.70;42.13
34031;BME280;20319;28.466;-16.274;2023-10-08T09:55:57;95203.50;;;25.52;41.92
34031;BME280;20319;28.466;-16.274;2023-10-08T09:58:24;95414.50;;;26.87;41.56
34031;BME280;20319;28.466;-16.274;2023-10-08T10:00:50;95246.88;;;25.85;41.26
34031;BME280;20319;28.466;-16.274;2023-10-08T10:03:18;95263.72;;;26.02;41.75
34031;BME280;20319;28.466;-16.274;2023-10-08T10:05:50;95357.00;;;26.60;41.28
34031;BME280;20319;28.466;-16.274;2023-10-08T10:08:16;95417.50;;;27.01;41.78
34031;BME280;20319;28.466;-16.274;2023-10-08T10:10:42;95265.69;;;26.02;41.90
34031;BME280;20319;28.466;-16.274;2023-10-08T10:13:13;95389.63;;;26.80;41.64
34031;BME280;20319;28.466;-16.274;2023-10-08T10:15:41;95384.25;;;26.87;41.45
34031;BME280;20319;28.466;-16.274;2023-10-08T10:18:14;95406.06;;;26.99;41.01
34031;BME280;20319;28.466;-16.274;2023-10-08T10:20:51;95420.13;;;27.17;41.63
34031;BME280;20319;28.466;-16.274;2023-10-08T10:31:54;95387.50;;;27.15;41.57
34031;BME280;20319;28.466;-16.274;2023-10-08T10:34:24;95380.72;;;27.09;41.39
34031;BME280;20319;28.466;-16.274;2023-10-08T10:36:54;95420.09;;;27.36;41.52
34031;BME280;20319;28.466;-16.274;2023-10-08T10:39:21;95377.25;;;27.12;40.87
34031;BME280;20319;28.466;-16.274;2023-10-08T10:42:00;95398.69;;;27.26;40.36
34031;BME280;20319;28.466;-16.274;2023-10-08T10:44:32;95376.50;;;27.15;40.63
34031;BME280;20319;28.466;-16.274;2023-10-08T10:46:59;95423.47;;;27.48;41.13
34031;BME280;20319;28.466;-16.274;2023-10-08T10:49:44;95424.31;;;27.52;40.55
34031;BME280;20319;28.466;-16.274;2023-10-08T10:52:29;95418.06;;;27.55;40.93
34031;BME280;20319;28.466;-16.274;2023-10-08T10:55:07;95235.97;;;26.49;40.79
34031;BME280;20319;28.466;-16.274;2023-10-08T10:57:52;95412.25;;;27.61;40.84
34031;BME280;20319;28.466;-16.274;2023-10-08T11:00:25;95410.34;;;27.65;40.68
34031;BME280;20319;28.466;-16.274;2023-10-08T11:02:58;95320.16;;;27.02;40.45
34031;BME280;20319;28.466;-16.274;2023-10-08T11:05:37;95357.28;;;27.38;40.54
34031;BME280;20319;28.466;-16.274;2023-10-08T11:08:06;95393.13;;;27.68;40.86
34031;BME280;20319;28.466;-16.274;2023-10-08T11:10:35;95365.81;;;27.55;40.18
34031;BME280;20319;28.466;-16.274;2023-10-08T11:13:06;95407.09;;;27.82;39.93
34031;BME280;20319;28.466;-16.274;2023-10-08T11:15:43;95405.53;;;27.84;40.23
34031;BME280;20319;28.466;-16.274;2023-10-08T11:18:15;95283.41;;;27.14;40.39
34031;BME280;20319;28.466;-16.274;2023-10-08T11:20:42;95364.13;;;27.74;40.33
34031;BME280;20319;28.466;-16.274;2023-10-08T11:23:32;95397.50;;;27.95;40.17
34031;BME280;20319;28.466;-16.274;2023-10-08T11:26:03;95251.06;;;27.04;40.36
34031;BME280;20319;28.466;-16.274;2023-10-08T11:28:31;95379.25;;;27.87;40.35
34031;BME280;20319;28.466;-16.274;2023-10-08T11:31:03;95244.81;;;27.07;40.47
34031;BME280;20319;28.466;-16.274;2023-10-08T11:33:37;95365.59;;;27.94;39.97
34031;BME280;20319;28.466;-16.274;2023-10-08T11:36:05;95369.09;;;27.91;39.94
34031;BME280;20319;28.466;-16.274;2023-10-08T11:38:57;95266.84;;;27.33;39.83
34031;BME280;20319;28.466;-16.274;2023-10-08T11:41:32;95368.53;;;28.04;40.10
34031;BME280;20319;28.466;-16.274;2023-10-08T11:44:15;95161.47;;;26.73;40.30
34031;BME280;20319;28.466;-16.274;2023-10-08T11:46:45;95230.09;;;27.22;39.58
34031;BME280;20319;28.466;-16.274;2023-10-08T11:49:11;95381.25;;;28.16;40.08
34031;BME280;20319;28.466;-16.274;2023-10-08T11:51:44;95294.91;;;27.72;39.57
34031;BME280;20319;28.466;-16.274;2023-10-08T11:54:14;95392.28;;;28.45;39.38
34031;BME280;20319;28.466;-16.274;2023-10-08T11:56:40;95402.63;;;28.52;39.67
34031;BME280;20319;28.466;-16.274;2023-10-08T11:59:06;95394.38;;;28.55;39.73
34031;BME280;20319;28.466;-16.274;2023-10-08T12:01:37;95256.31;;;27.68;39.56
34031;BME280;20319;28.466;-16.274;2023-10-08T12:04:10;95257.13;;;27.69;39.90
34031;BME280;20319;28.466;-16.274;2023-10-08T12:06:42;95419.75;;;28.68;39.63
34031;BME280;20319;28.466;-16.274;2023-10-08T12:09:13;95286.53;;;27.91;39.88
34031;BME280;20319;28.466;-16.274;2023-10-08T12:11:39;95385.00;;;28.60;39.54
34031;BME280;20319;28.466;-16.274;2023-10-08T12:14:05;95282.06;;;28.09;39.00
34031;BME280;20319;28.466;-16.274;2023-10-08T12:16:31;95163.50;;;27.32;39.27
34031;BME280;20319;28.466;-16.274;2023-10-08T12:19:01;95395.94;;;28.89;39.33
34031;BME280;20319;28.466;-16.274;2023-10-08T12:21:30;95403.13;;;28.98;39.09
34031;BME280;20319;28.466;-16.274;2023-10-08T12:24:00;95388.97;;;28.99;39.00
34031;BME280;20319;28.466;-16.274;2023-10-08T12:26:30;95249.84;;;28.13;39.26
34031;BME280;20319;28.466;-16.274;2023-10-08T12:28:56;95368.78;;;28.88;39.32
34031;BME280;20319;28.466;-16.274;2023-10-08T12:31:23;95370.34;;;28.89;39.37
34031;BME280;20319;28.466;-16.274;2023-10-08T12:33:52;95257.00;;;28.21;39.85
34031;BME280;20319;28.466;-16.274;2023-10-08T12:36:25;95371.66;;;29.02;38.82
34031;BME280;20319;28.466;-16.274;2023-10-08T12:38:52;95378.34;;;29.01;39.51
34031;BME280;20319;28.466;-16.274;2023-10-08T12:41:27;95357.56;;;29.07;39.03
34031;BME280;20319;28.466;-16.274;2023-10-08T12:43:53;95372.66;;;29.20;38.95
34031;BME280;20319;28.466;-16.274;2023-10-08T12:46:20;95364.72;;;29.15;39.23
34031;BME280;20319;28.466;-16.274;2023-10-08T12:48:53;95239.13;;;28.41;39.22
34031;BME280;20319;28.466;-16.274;2023-10-08T12:51:24;95368.41;;;29.30;39.05
34031;BME280;20319;28.466;-16.274;2023-10-08T12:53:50;95359.97;;;29.12;39.12
34031;BME280;20319;28.466;-16.274;2023-10-08T12:56:24;95387.72;;;29.30;39.23
34031;BME280;20319;28.466;-16.274;2023-10-08T12:58:58;95376.25;;;29.28;38.78
34031;BME280;20319;28.466;-16.274;2023-10-08T13:01:24;95379.81;;;29.28;39.08
34031;BME280;20319;28.466;-16.274;2023-10-08T13:03:54;95369.59;;;29.32;38.96
34031;BME280;20319;28.466;-16.274;2023-10-08T13:06:25;95354.59;;;29.26;38.93
34031;BME280;20319;28.466;-16.274;2023-10-08T13:08:58;95319.28;;;29.02;39.50
34031;BME280;20319;28.466;-16.274;2023-10-08T13:11:25;95310.72;;;29.11;38.99
34031;BME280;20319;28.466;-16.274;2023-10-08T13:13:53;95218.03;;;28.55;38.81
34031;BME280;20319;28.466;-16.274;2023-10-08T13:16:20;95353.94;;;29.43;38.05